sensor_id;sensor_type;location;lat;lon;timestamp;pressure;altitude;pressure_sealevel;temperature;humidity
60055;BME280;45930;53.514;55.904;2022-08-27T00:00:27;51489.75;;;-149.77;44.33
60055;BME280;45930;53.514;55.904;2022-08-27T00:01:28;51638.38;;;-149.77;44.41
60055;BME280;45930;53.514;55.904;2022-08-27T00:02:30;51765.22;;;-149.77;44.51
60055;BME280;45930;53.514;55.904;2022-08-27T00:03:35;51769.19;;;-149.77;44.38
60055;BME280;45930;53.514;55.904;2022-08-27T00:04:37;51951.56;;;-149.77;44.63
60055;BME280;45930;53.514;55.904;2022-08-27T00:05:38;52062.56;;;-149.77;44.76
60055;BME280;45930;53.514;55.904;2022-08-27T00:06:40;52399.53;;;-149.77;44.98
60055;BME280;45930;53.514;55.904;2022-08-27T00:07:41;52294.47;;;-149.77;44.93
60055;BME280;45930;53.514;55.904;2022-08-27T00:08:43;52470.91;;;-149.77;44.91
60055;BME280;45930;53.514;55.904;2022-08-27T00:09:44;52290.50;;;-149.77;44.87
60055;BME280;45930;53.514;55.904;2022-08-27T00:10:45;52040.75;;;-149.77;44.73
60055;BME280;45930;53.514;55.904;2022-08-27T00:11:45;51965.44;;;-149.77;44.64
60055;BME280;45930;53.514;55.904;2022-08-27T00:12:47;51933.72;;;-149.77;44.61
60055;BME280;45930;53.514;55.904;2022-08-27T00:13:50;51941.63;;;-149.77;44.68
60055;BME280;45930;53.514;55.904;2022-08-27T00:14:51;52108.16;;;-149.77;44.78
60055;BME280;45930;53.514;55.904;2022-08-27T00:15:52;52556.16;;;-149.77;45.15
60055;BME280;45930;53.514;55.904;2022-08-27T00:16:53;52996.28;;;-149.77;45.16
60055;BME280;45930;53.514;55.904;2022-08-27T00:17:54;53256.00;;;-149.77;45.27
60055;BME280;45930;53.514;55.904;2022-08-27T00:18:55;53295.66;;;-149.77;45.23
60055;BME280;45930;53.514;55.904;2022-08-27T00:19:56;53150.94;;;-149.77;45.26
60055;BME280;45930;53.514;55.904;2022-08-27T00:20:57;52817.84;;;-149.77;45.21
60055;BME280;45930;53.514;55.904;2022-08-27T00:21:58;52690.97;;;-149.77;45.09
60055;BME280;45930;53.514;55.904;2022-08-27T00:22:59;52566.06;;;-149.77;45.07
60055;BME280;45930;53.514;55.904;2022-08-27T00:24:00;52643.38;;;-149.77;45.11
60055;BME280;45930;53.514;55.904;2022-08-27T00:25:01;52746.47;;;-149.77;45.13
60055;BME280;45930;53.514;55.904;2022-08-27T00:26:03;52982.41;;;-149.77;45.18
60055;BME280;45930;53.514;55.904;2022-08-27T00:27:04;53075.59;;;-149.77;45.31
60055;BME280;45930;53.514;55.904;2022-08-27T00:28:05;53662.50;;;-149.77;45.57
60055;BME280;45930;53.514;55.904;2022-08-27T00:29:05;53759.69;;;-149.77;45.74
60055;BME280;45930;53.514;55.904;2022-08-27T00:30:11;53753.72;;;-149.77;45.56
60055;BME280;45930;53.514;55.904;2022-08-27T00:31:13;53632.75;;;-149.77;45.55
60055;BME280;45930;53.514;55.904;2022-08-27T00:32:14;53412.66;;;-149.77;45.54
60055;BME280;45930;53.514;55.904;2022-08-27T00:33:15;53141.00;;;-149.77;45.36
60055;BME280;45930;53.514;55.904;2022-08-27T00:34:15;52915.00;;;-149.77;45.26
60055;BME280;45930;53.514;55.904;2022-08-27T00:35:17;52191.41;;;-149.77;44.93
60055;BME280;45930;53.514;55.904;2022-08-27T00:36:18;51836.59;;;-149.77;44.62
60055;BME280;45930;53.514;55.904;2022-08-27T00:37:18;51640.38;;;-149.77;44.56
60055;BME280;45930;53.514;55.904;2022-08-27T00:38:21;51749.38;;;-149.77;44.64
60055;BME280;45930;53.514;55.904;2022-08-27T00:39:22;51874.25;;;-149.77;44.65
60055;BME280;45930;53.514;55.904;2022-08-27T00:40:23;51656.22;;;-149.77;44.56
60055;BME280;45930;53.514;55.904;2022-08-27T00:41:24;51462.00;;;-149.77;44.37
60055;BME280;45930;53.514;55.904;2022-08-27T00:42:25;51236.06;;;-149.77;44.14
60055;BME280;45930;53.514;55.904;2022-08-27T00:43:30;51273.72;;;-149.77;44.19
60055;BME280;45930;53.514;55.904;2022-08-27T00:44:31;51329.22;;;-149.77;44.23
60055;BME280;45930;53.514;55.904;2022-08-27T00:45:37;51295.50;;;-149.77;44.21
60055;BME280;45930;53.514;55.904;2022-08-27T00:46:47;51196.44;;;-149.77;44.15
60055;BME280;45930;53.514;55.904;2022-08-27T00:47:54;51140.94;;;-149.77;44.11
60055;BME280;45930;53.514;55.904;2022-08-27T00:49:01;50960.59;;;-149.77;43.88
60055;BME280;45930;53.514;55.904;2022-08-27T00:50:07;50950.69;;;-149.77;43.88
60055;BME280;45930;53.514;55.904;2022-08-27T00:51:09;50938.81;;;-149.77;43.88
60055;BME280;45930;53.514;55.904;2022-08-27T00:52:20;51010.16;;;-149.77;44.00
60055;BME280;45930;53.514;55.904;2022-08-27T00:53:25;51053.75;;;-149.77;44.11
60055;BME280;45930;53.514;55.904;2022-08-27T00:54:29;51109.22;;;-149.77;44.21
60055;BME280;45930;53.514;55.904;2022-08-27T00:55:37;51192.47;;;-149.77;44.17
60055;BME280;45930;53.514;55.904;2022-08-27T00:56:41;51208.31;;;-149.77;44.30
60055;BME280;45930;53.514;55.904;2022-08-27T00:57:51;51200.38;;;-149.77;44.25
60055;BME280;45930;53.514;55.904;2022-08-27T00:58:54;51218.22;;;-149.77;44.34
60055;BME280;45930;53.514;55.904;2022-08-27T00:59:56;51170.66;;;-149.77;44.19
60055;BME280;45930;53.514;55.904;2022-08-27T01:00:58;51113.19;;;-149.77;44.17
60055;BME280;45930;53.514;55.904;2022-08-27T01:02:00;51067.63;;;-149.77;44.03
60055;BME280;45930;53.514;55.904;2022-08-27T01:03:19;51166.69;;;-149.77;44.21
60055;BME280;45930;53.514;55.904;2022-08-27T01:04:20;51319.28;;;-149.77;44.35
60055;BME280;45930;53.514;55.904;2022-08-27T01:05:22;51462.00;;;-149.77;44.48
60055;BME280;45930;53.514;55.904;2022-08-27T01:06:30;51343.09;;;-149.77;44.33
60055;BME280;45930;53.514;55.904;2022-08-27T01:07:36;51172.66;;;-149.77;44.18
60055;BME280;45930;53.514;55.904;2022-08-27T01:08:43;50926.91;;;-149.77;43.93
60055;BME280;45930;53.514;55.904;2022-08-27T01:09:47;50718.84;;;-149.77;43.58
60055;BME280;45930;53.514;55.904;2022-08-27T01:10:50;50607.88;;;-149.77;43.46
60055;BME280;45930;53.514;55.904;2022-08-27T01:11:52;50651.47;;;-149.77;43.50
60055;BME280;45930;53.514;55.904;2022-08-27T01:12:54;50819.91;;;-149.77;43.74
60055;BME280;45930;53.514;55.904;2022-08-27T01:13:56;50978.44;;;-149.77;43.92
60055;BME280;45930;53.514;55.904;2022-08-27T01:14:57;51125.09;;;-149.77;44.25
60055;BME280;45930;53.514;55.904;2022-08-27T01:15:58;51519.47;;;-149.77;44.52
60055;BME280;45930;53.514;55.904;2022-08-27T01:17:01;51905.97;;;-149.77;44.83
60055;BME280;45930;53.514;55.904;2022-08-27T01:18:04;51810.81;;;-149.77;44.71
60055;BME280;45930;53.514;55.904;2022-08-27T01:19:09;51648.28;;;-149.77;44.67
60055;BME280;45930;53.514;55.904;2022-08-27T01:20:27;51483.78;;;-149.77;44.43
60055;BME280;45930;53.514;55.904;2022-08-27T01:21:37;51382.72;;;-149.77;44.24
60055;BME280;45930;53.514;55.904;2022-08-27T01:23:53;51434.25;;;-149.77;44.44
60055;BME280;45930;53.514;55.904;2022-08-27T01:25:00;51442.16;;;-149.77;44.34
60055;BME280;45930;53.514;55.904;2022-08-27T01:26:05;51242.00;;;-149.77;44.16
60055;BME280;45930;53.514;55.904;2022-08-27T01:27:10;51140.94;;;-149.77;44.06
60055;BME280;45930;53.514;55.904;2022-08-27T01:28:12;51119.13;;;-149.77;43.98
60055;BME280;45930;53.514;55.904;2022-08-27T01:29:14;51142.91;;;-149.77;44.08
60055;BME280;45930;53.514;55.904;2022-08-27T01:30:18;50936.81;;;-149.77;43.87
60055;BME280;45930;53.514;55.904;2022-08-27T01:31:19;50734.69;;;-149.77;43.61
60055;BME280;45930;53.514;55.904;2022-08-27T01:32:26;50710.94;;;-149.77;43.58
60055;BME280;45930;53.514;55.904;2022-08-27T01:33:27;50841.72;;;-149.77;43.68
60055;BME280;45930;53.514;55.904;2022-08-27T01:34:28;50873.41;;;-149.77;43.76
60055;BME280;45930;53.514;55.904;2022-08-27T01:35:28;50877.38;;;-149.77;43.75
60055;BME280;45930;53.514;55.904;2022-08-27T01:36:30;50800.09;;;-149.77;43.64
60055;BME280;45930;53.514;55.904;2022-08-27T01:37:31;50790.19;;;-149.77;43.66
60055;BME280;45930;53.514;55.904;2022-08-27T01:38:33;50821.88;;;-149.77;43.78
60055;BME280;45930;53.514;55.904;2022-08-27T01:39:36;50891.25;;;-149.77;43.68
60055;BME280;45930;53.514;55.904;2022-08-27T01:40:39;50863.50;;;-149.77;43.73
60055;BME280;45930;53.514;55.904;2022-08-27T01:41:40;50693.09;;;-149.77;43.49
60055;BME280;45930;53.514;55.904;2022-08-27T01:42:43;50615.81;;;-149.77;43.33
60055;BME280;45930;53.514;55.904;2022-08-27T01:43:45;50726.78;;;-149.77;43.55
60055;BME280;45930;53.514;55.904;2022-08-27T01:44:52;50792.16;;;-149.77;43.59
60055;BME280;45930;53.514;55.904;2022-08-27T01:45:53;50693.09;;;-149.77;43.45
60055;BME280;45930;53.514;55.904;2022-08-27T01:46:54;50724.78;;;-149.77;43.47
60055;BME280;45930;53.514;55.904;2022-08-27T01:47:56;50849.63;;;-149.77;43.64
60055;BME280;45930;53.514;55.904;2022-08-27T01:48:57;50835.75;;;-149.77;43.69
60055;BME280;45930;53.514;55.904;2022-08-27T01:49:58;50808.03;;;-149.77;43.63
60055;BME280;45930;53.514;55.904;2022-08-27T01:50:59;50827.84;;;-149.77;43.61
60055;BME280;45930;53.514;55.904;2022-08-27T01:52:00;50863.50;;;-149.77;43.63
60055;BME280;45930;53.514;55.904;2022-08-27T01:53:09;50942.78;;;-149.77;43.85
60055;BME280;45930;53.514;55.904;2022-08-27T01:54:11;51033.94;;;-149.77;43.88
60055;BME280;45930;53.514;55.904;2022-08-27T01:55:15;51081.50;;;-149.77;43.89
60055;BME280;45930;53.514;55.904;2022-08-27T01:56:16;51138.97;;;-149.77;43.93
60055;BME280;45930;53.514;55.904;2022-08-27T01:57:18;51135.00;;;-149.77;43.85
60055;BME280;45930;53.514;55.904;2022-08-27T01:58:22;51182.56;;;-149.77;43.96
60055;BME280;45930;53.514;55.904;2022-08-27T01:59:24;51259.84;;;-149.77;44.03
60055;BME280;45930;53.514;55.904;2022-08-27T02:00:28;51370.81;;;-149.77;44.18
60055;BME280;45930;53.514;55.904;2022-08-27T02:01:30;51446.13;;;-149.77;44.22
60055;BME280;45930;53.514;55.904;2022-08-27T02:02:30;51598.75;;;-149.77;44.38
60055;BME280;45930;53.514;55.904;2022-08-27T02:03:32;51608.66;;;-149.77;44.31
60055;BME280;45930;53.514;55.904;2022-08-27T02:04:36;51446.13;;;-149.77;44.18
60055;BME280;45930;53.514;55.904;2022-08-27T02:05:38;51238.03;;;-149.77;43.95
60055;BME280;45930;53.514;55.904;2022-08-27T02:06:39;51097.34;;;-149.77;43.75
60055;BME280;45930;53.514;55.904;2022-08-27T02:07:40;50980.41;;;-149.77;43.57
60055;BME280;45930;53.514;55.904;2022-08-27T02:08:41;50962.59;;;-149.77;43.50
60055;BME280;45930;53.514;55.904;2022-08-27T02:09:42;50907.09;;;-149.77;43.63
60055;BME280;45930;53.514;55.904;2022-08-27T02:10:46;50924.94;;;-149.77;43.55
60055;BME280;45930;53.514;55.904;2022-08-27T02:11:47;50924.94;;;-149.77;43.65
60055;BME280;45930;53.514;55.904;2022-08-27T02:12:48;51053.75;;;-149.77;43.61
60055;BME280;45930;53.514;55.904;2022-08-27T02:13:49;51152.81;;;-149.77;43.69
60055;BME280;45930;53.514;55.904;2022-08-27T02:14:50;51212.28;;;-149.77;43.96
60055;BME280;45930;53.514;55.904;2022-08-27T02:15:51;51218.22;;;-149.77;43.85
60055;BME280;45930;53.514;55.904;2022-08-27T02:16:52;51305.44;;;-149.77;43.85
60055;BME280;45930;53.514;55.904;2022-08-27T02:17:54;51212.28;;;-149.77;43.70
60055;BME280;45930;53.514;55.904;2022-08-27T02:18:55;51168.69;;;-149.77;43.71
60055;BME280;45930;53.514;55.904;2022-08-27T02:19:56;51170.66;;;-149.77;43.91
60055;BME280;45930;53.514;55.904;2022-08-27T02:20:56;51299.47;;;-149.77;43.93
60055;BME280;45930;53.514;55.904;2022-08-27T02:21:57;51424.34;;;-149.77;43.94
60055;BME280;45930;53.514;55.904;2022-08-27T02:23:00;51483.78;;;-149.77;43.93
60055;BME280;45930;53.514;55.904;2022-08-27T02:24:01;51525.41;;;-149.77;44.08
60055;BME280;45930;53.514;55.904;2022-08-27T02:25:02;51438.22;;;-149.77;44.01
60055;BME280;45930;53.514;55.904;2022-08-27T02:26:04;51418.38;;;-149.77;43.98
60055;BME280;45930;53.514;55.904;2022-08-27T02:27:04;51388.66;;;-149.77;43.80
60055;BME280;45930;53.514;55.904;2022-08-27T02:28:06;51354.97;;;-149.77;43.70
60055;BME280;45930;53.514;55.904;2022-08-27T02:29:07;51368.84;;;-149.77;43.73
60055;BME280;45930;53.514;55.904;2022-08-27T02:30:10;51465.94;;;-149.77;43.80
60055;BME280;45930;53.514;55.904;2022-08-27T02:31:12;51537.31;;;-149.77;43.75
60055;BME280;45930;53.514;55.904;2022-08-27T02:32:13;51917.84;;;-149.77;44.16
60055;BME280;45930;53.514;55.904;2022-08-27T02:33:14;52133.91;;;-149.77;44.29
60055;BME280;45930;53.514;55.904;2022-08-27T02:34:17;52399.53;;;-149.77;44.56
60055;BME280;45930;53.514;55.904;2022-08-27T02:35:20;52534.34;;;-149.77;44.58
60055;BME280;45930;53.514;55.904;2022-08-27T02:36:21;52480.81;;;-149.77;44.69
60055;BME280;45930;53.514;55.904;2022-08-27T02:37:22;52431.25;;;-149.77;44.65
60055;BME280;45930;53.514;55.904;2022-08-27T02:38:23;52149.78;;;-149.77;44.33
60055;BME280;45930;53.514;55.904;2022-08-27T02:39:24;51929.75;;;-149.77;44.28
60055;BME280;45930;53.514;55.904;2022-08-27T02:40:25;51755.31;;;-149.77;44.10
60055;BME280;45930;53.514;55.904;2022-08-27T02:41:26;51463.97;;;-149.77;43.84
60055;BME280;45930;53.514;55.904;2022-08-27T02:42:27;51279.66;;;-149.77;43.66
60055;BME280;45930;53.514;55.904;2022-08-27T02:43:28;51105.25;;;-149.77;43.53
60055;BME280;45930;53.514;55.904;2022-08-27T02:44:30;51109.22;;;-149.77;43.36
60055;BME280;45930;53.514;55.904;2022-08-27T02:45:31;51014.09;;;-149.77;43.12
60055;BME280;45930;53.514;55.904;2022-08-27T02:46:32;51002.22;;;-149.77;43.30
60055;BME280;45930;53.514;55.904;2022-08-27T02:47:33;51026.00;;;-149.77;43.10
60055;BME280;45930;53.514;55.904;2022-08-27T02:48:35;51045.81;;;-149.77;43.34
60055;BME280;45930;53.514;55.904;2022-08-27T02:49:36;51029.97;;;-149.77;43.25
60055;BME280;45930;53.514;55.904;2022-08-27T02:50:37;50946.72;;;-149.77;43.25
60055;BME280;45930;53.514;55.904;2022-08-27T02:51:38;51018.06;;;-149.77;43.27
60055;BME280;45930;53.514;55.904;2022-08-27T02:52:39;51004.19;;;-149.77;43.25
60055;BME280;45930;53.514;55.904;2022-08-27T02:53:40;51049.78;;;-149.77;43.20
60055;BME280;45930;53.514;55.904;2022-08-27T02:54:43;51033.94;;;-149.77;43.05
60055;BME280;45930;53.514;55.904;2022-08-27T02:55:44;50990.31;;;-149.77;43.01
60055;BME280;45930;53.514;55.904;2022-08-27T02:56:45;50843.69;;;-149.77;43.10
60055;BME280;45930;53.514;55.904;2022-08-27T02:57:46;50768.38;;;-149.77;42.88
60055;BME280;45930;53.514;55.904;2022-08-27T02:58:47;50738.66;;;-149.77;42.85
60055;BME280;45930;53.514;55.904;2022-08-27T02:59:49;50665.34;;;-149.77;42.70
60055;BME280;45930;53.514;55.904;2022-08-27T03:00:50;50649.50;;;-149.77;42.52
60055;BME280;45930;53.514;55.904;2022-08-27T03:01:51;50544.47;;;-149.77;42.37
60055;BME280;45930;53.514;55.904;2022-08-27T03:02:52;50566.28;;;-149.77;42.32
60055;BME280;45930;53.514;55.904;2022-08-27T03:03:53;50570.25;;;-149.77;42.45
60055;BME280;45930;53.514;55.904;2022-08-27T03:04:53;50613.84;;;-149.77;42.33
60055;BME280;45930;53.514;55.904;2022-08-27T03:05:55;50629.69;;;-149.77;42.40
60055;BME280;45930;53.514;55.904;2022-08-27T03:06:57;50663.38;;;-149.77;42.53
60055;BME280;45930;53.514;55.904;2022-08-27T03:07:58;50683.19;;;-149.77;42.60
60055;BME280;45930;53.514;55.904;2022-08-27T03:08:59;50839.72;;;-149.77;42.69
60055;BME280;45930;53.514;55.904;2022-08-27T03:10:00;50869.44;;;-149.77;42.80
60055;BME280;45930;53.514;55.904;2022-08-27T03:11:01;50703.00;;;-149.77;42.40
60055;BME280;45930;53.514;55.904;2022-08-27T03:12:05;50609.88;;;-149.77;42.28
60055;BME280;45930;53.514;55.904;2022-08-27T03:13:06;50669.31;;;-149.77;42.20
60055;BME280;45930;53.514;55.904;2022-08-27T03:14:07;50641.56;;;-149.77;42.32
60055;BME280;45930;53.514;55.904;2022-08-27T03:15:10;50542.50;;;-149.77;42.19
60055;BME280;45930;53.514;55.904;2022-08-27T03:16:12;50516.75;;;-149.77;41.90
60055;BME280;45930;53.514;55.904;2022-08-27T03:17:13;50433.53;;;-149.77;41.93
60055;BME280;45930;53.514;55.904;2022-08-27T03:18:33;50280.97;;;-149.77;41.69
60055;BME280;45930;53.514;55.904;2022-08-27T03:19:33;50239.34;;;-149.77;41.37
60055;BME280;45930;53.514;55.904;2022-08-27T03:20:41;50290.88;;;-149.77;41.66
60055;BME280;45930;53.514;55.904;2022-08-27T03:21:42;50334.44;;;-149.77;41.62
60055;BME280;45930;53.514;55.904;2022-08-27T03:22:44;50405.78;;;-149.77;41.62
60055;BME280;45930;53.514;55.904;2022-08-27T03:23:45;50389.94;;;-149.77;41.59
60055;BME280;45930;53.514;55.904;2022-08-27T03:24:46;50330.50;;;-149.77;41.56
60055;BME280;45930;53.514;55.904;2022-08-27T03:25:52;50308.69;;;-149.77;41.44
60055;BME280;45930;53.514;55.904;2022-08-27T03:26:53;50225.47;;;-149.77;41.38
60055;BME280;45930;53.514;55.904;2022-08-27T03:27:54;50217.56;;;-149.77;41.11
60055;BME280;45930;53.514;55.904;2022-08-27T03:28:55;50225.47;;;-149.77;41.14
60055;BME280;45930;53.514;55.904;2022-08-27T03:29:55;50227.47;;;-149.77;41.07
60055;BME280;45930;53.514;55.904;2022-08-27T03:31:00;50255.19;;;-149.77;41.17
60055;BME280;45930;53.514;55.904;2022-08-27T03:32:05;50215.56;;;-149.77;41.16
60055;BME280;45930;53.514;55.904;2022-08-27T03:33:06;50227.47;;;-149.77;41.14
60055;BME280;45930;53.514;55.904;2022-08-27T03:34:07;50259.16;;;-149.77;41.31
60055;BME280;45930;53.514;55.904;2022-08-27T03:35:10;50227.47;;;-149.77;41.19
60055;BME280;45930;53.514;55.904;2022-08-27T03:36:11;50247.28;;;-149.77;41.00
60055;BME280;45930;53.514;55.904;2022-08-27T03:37:11;50166.03;;;-149.77;41.04
60055;BME280;45930;53.514;55.904;2022-08-27T03:38:13;50140.28;;;-149.77;40.81
60055;BME280;45930;53.514;55.904;2022-08-27T03:39:17;50114.53;;;-149.77;40.74
60055;BME280;45930;53.514;55.904;2022-08-27T03:40:17;50122.47;;;-149.77;40.91
60055;BME280;45930;53.514;55.904;2022-08-27T03:41:19;50201.72;;;-149.77;40.98
60055;BME280;45930;53.514;55.904;2022-08-27T03:42:20;50241.34;;;-149.77;41.08
60055;BME280;45930;53.514;55.904;2022-08-27T03:43:22;50253.22;;;-149.77;41.04
60055;BME280;45930;53.514;55.904;2022-08-27T03:44:23;50273.03;;;-149.77;41.12
60055;BME280;45930;53.514;55.904;2022-08-27T03:45:24;50223.50;;;-149.77;40.88
60055;BME280;45930;53.514;55.904;2022-08-27T03:46:26;50132.38;;;-149.77;40.76
60055;BME280;45930;53.514;55.904;2022-08-27T03:47:30;50070.94;;;-149.77;40.59
60055;BME280;45930;53.514;55.904;2022-08-27T03:48:31;50055.09;;;-149.77;40.51
60055;BME280;45930;53.514;55.904;2022-08-27T03:49:33;49944.16;;;-149.77;40.06
60055;BME280;45930;53.514;55.904;2022-08-27T03:50:37;49991.69;;;-149.77;40.16
60055;BME280;45930;53.514;55.904;2022-08-27T03:51:37;49991.69;;;-149.77;40.10
60055;BME280;45930;53.514;55.904;2022-08-27T03:52:39;49961.97;;;-149.77;40.03
60055;BME280;45930;53.514;55.904;2022-08-27T03:53:42;49991.69;;;-149.77;40.06
60055;BME280;45930;53.514;55.904;2022-08-27T03:54:44;50021.41;;;-149.77;40.09
60055;BME280;45930;53.514;55.904;2022-08-27T03:55:46;50005.56;;;-149.77;40.14
60055;BME280;45930;53.514;55.904;2022-08-27T03:56:47;49973.88;;;-149.77;39.92
60055;BME280;45930;53.514;55.904;2022-08-27T03:57:48;49956.03;;;-149.77;39.91
60055;BME280;45930;53.514;55.904;2022-08-27T03:58:49;49985.75;;;-149.77;39.93
60055;BME280;45930;53.514;55.904;2022-08-27T03:59:50;50017.44;;;-149.77;40.06
60055;BME280;45930;53.514;55.904;2022-08-27T04:00:51;49969.91;;;-149.77;39.87
60055;BME280;45930;53.514;55.904;2022-08-27T04:01:51;49960.00;;;-149.77;39.83
60055;BME280;45930;53.514;55.904;2022-08-27T04:02:53;49950.09;;;-149.77;39.87
60055;BME280;45930;53.514;55.904;2022-08-27T04:03:54;49858.97;;;-149.77;39.46
60055;BME280;45930;53.514;55.904;2022-08-27T04:04:55;49829.25;;;-149.77;39.23
60055;BME280;45930;53.514;55.904;2022-08-27T04:05:57;49821.31;;;-149.77;39.19
60055;BME280;45930;53.514;55.904;2022-08-27T04:06:58;49809.44;;;-149.77;39.23
60055;BME280;45930;53.514;55.904;2022-08-27T04:07:59;49799.53;;;-149.77;38.85
60055;BME280;45930;53.514;55.904;2022-08-27T04:09:01;49746.03;;;-149.77;38.74
60055;BME280;45930;53.514;55.904;2022-08-27T04:10:03;49726.22;;;-149.77;38.49
60055;BME280;45930;53.514;55.904;2022-08-27T04:11:06;49704.44;;;-149.77;38.54
60055;BME280;45930;53.514;55.904;2022-08-27T04:12:09;49736.13;;;-149.77;38.40
60055;BME280;45930;53.514;55.904;2022-08-27T04:13:11;49752.00;;;-149.77;38.67
60055;BME280;45930;53.514;55.904;2022-08-27T04:14:11;49809.44;;;-149.77;39.01
60055;BME280;45930;53.514;55.904;2022-08-27T04:15:12;49803.50;;;-149.77;38.98
60055;BME280;45930;53.514;55.904;2022-08-27T04:16:13;49769.81;;;-149.77;38.66
60055;BME280;45930;53.514;55.904;2022-08-27T04:17:14;49724.25;;;-149.77;38.46
60055;BME280;45930;53.514;55.904;2022-08-27T04:18:16;49720.28;;;-149.77;38.22
60055;BME280;45930;53.514;55.904;2022-08-27T04:19:17;49700.47;;;-149.77;38.24
60055;BME280;45930;53.514;55.904;2022-08-27T04:20:18;49702.47;;;-149.77;38.21
60055;BME280;45930;53.514;55.904;2022-08-27T04:21:19;49757.94;;;-149.77;38.43
60055;BME280;45930;53.514;55.904;2022-08-27T04:22:20;49722.28;;;-149.77;38.29
60055;BME280;45930;53.514;55.904;2022-08-27T04:23:21;49688.59;;;-149.77;38.07
60055;BME280;45930;53.514;55.904;2022-08-27T04:24:22;49700.47;;;-149.77;38.12
60055;BME280;45930;53.514;55.904;2022-08-27T04:25:22;49724.25;;;-149.77;38.16
60055;BME280;45930;53.514;55.904;2022-08-27T04:26:24;49678.69;;;-149.77;37.90
60055;BME280;45930;53.514;55.904;2022-08-27T04:27:24;49696.53;;;-149.77;37.58
60055;BME280;45930;53.514;55.904;2022-08-27T04:28:26;49696.53;;;-149.77;37.92
60055;BME280;45930;53.514;55.904;2022-08-27T04:29:27;49692.56;;;-149.77;37.52
60055;BME280;45930;53.514;55.904;2022-08-27T04:30:27;49654.91;;;-149.77;37.54
60055;BME280;45930;53.514;55.904;2022-08-27T04:31:29;49666.81;;;-149.77;37.18
60055;BME280;45930;53.514;55.904;2022-08-27T04:32:30;49641.06;;;-149.77;37.37
60055;BME280;45930;53.514;55.904;2022-08-27T04:33:31;49650.94;;;-149.77;37.24
60055;BME280;45930;53.514;55.904;2022-08-27T04:34:32;49682.66;;;-149.77;37.55
60055;BME280;45930;53.514;55.904;2022-08-27T04:35:33;49672.75;;;-149.77;37.48
60055;BME280;45930;53.514;55.904;2022-08-27T04:36:34;49688.59;;;-149.77;37.29
60055;BME280;45930;53.514;55.904;2022-08-27T04:37:37;49676.72;;;-149.77;37.26
60055;BME280;45930;53.514;55.904;2022-08-27T04:38:39;49654.91;;;-149.77;37.34
60055;BME280;45930;53.514;55.904;2022-08-27T04:39:40;49684.63;;;-149.77;37.37
60055;BME280;45930;53.514;55.904;2022-08-27T04:40:41;49696.53;;;-149.77;37.50
60055;BME280;45930;53.514;55.904;2022-08-27T04:42:00;49656.91;;;-149.77;37.11
60055;BME280;45930;53.514;55.904;2022-08-27T04:43:01;49627.19;;;-149.77;36.75
60055;BME280;45930;53.514;55.904;2022-08-27T04:44:04;49619.25;;;-149.77;36.60
60055;BME280;45930;53.514;55.904;2022-08-27T04:45:06;49629.16;;;-149.77;36.57
60055;BME280;45930;53.514;55.904;2022-08-27T04:46:07;49658.88;;;-149.77;36.73
60055;BME280;45930;53.514;55.904;2022-08-27T04:47:08;49631.16;;;-149.77;36.45
60055;BME280;45930;53.514;55.904;2022-08-27T04:48:10;49583.59;;;-149.77;36.27
60055;BME280;45930;53.514;55.904;2022-08-27T04:49:12;49615.28;;;-149.77;36.36
60055;BME280;45930;53.514;55.904;2022-08-27T04:50:13;49605.38;;;-149.77;36.17
60055;BME280;45930;53.514;55.904;2022-08-27T04:51:14;49623.22;;;-149.77;36.15
60055;BME280;45930;53.514;55.904;2022-08-27T04:52:15;49581.63;;;-149.77;36.17
60055;BME280;45930;53.514;55.904;2022-08-27T04:53:16;49631.16;;;-149.77;36.18
60055;BME280;45930;53.514;55.904;2022-08-27T04:54:17;49601.44;;;-149.77;35.81
60055;BME280;45930;53.514;55.904;2022-08-27T04:55:18;49583.59;;;-149.77;35.99
60055;BME280;45930;53.514;55.904;2022-08-27T04:56:20;49615.28;;;-149.77;36.02
60055;BME280;45930;53.514;55.904;2022-08-27T04:57:22;49603.41;;;-149.77;36.35
60055;BME280;45930;53.514;55.904;2022-08-27T04:58:24;49627.19;;;-149.77;36.42
60055;BME280;45930;53.514;55.904;2022-08-27T04:59:25;49613.31;;;-149.77;36.06
60055;BME280;45930;53.514;55.904;2022-08-27T05:00:26;49643.03;;;-149.77;36.29
60055;BME280;45930;53.514;55.904;2022-08-27T05:01:27;49633.13;;;-149.77;36.42
60055;BME280;45930;53.514;55.904;2022-08-27T05:02:29;49587.56;;;-149.77;35.69
60055;BME280;45930;53.514;55.904;2022-08-27T05:03:29;49599.44;;;-149.77;35.62
60055;BME280;45930;53.514;55.904;2022-08-27T05:04:31;49617.28;;;-149.77;35.72
60055;BME280;45930;53.514;55.904;2022-08-27T05:05:33;49599.44;;;-149.77;35.76
60055;BME280;45930;53.514;55.904;2022-08-27T05:06:34;49583.59;;;-149.77;36.08
60055;BME280;45930;53.514;55.904;2022-08-27T05:07:36;49629.16;;;-149.77;36.02
60055;BME280;45930;53.514;55.904;2022-08-27T05:08:37;49583.59;;;-149.77;35.77
60055;BME280;45930;53.514;55.904;2022-08-27T05:09:39;49589.53;;;-149.77;35.54
60055;BME280;45930;53.514;55.904;2022-08-27T05:10:45;49591.53;;;-149.77;35.62
60055;BME280;45930;53.514;55.904;2022-08-27T05:11:46;49623.22;;;-149.77;35.49
60055;BME280;45930;53.514;55.904;2022-08-27T05:12:47;49603.41;;;-149.77;35.63
60055;BME280;45930;53.514;55.904;2022-08-27T05:13:49;49591.53;;;-149.77;35.41
60055;BME280;45930;53.514;55.904;2022-08-27T05:14:50;49581.63;;;-149.77;35.39
60055;BME280;45930;53.514;55.904;2022-08-27T05:16:06;49563.78;;;-149.77;35.12
60055;BME280;45930;53.514;55.904;2022-08-27T05:17:07;49567.75;;;-149.77;35.08
60055;BME280;45930;53.514;55.904;2022-08-27T05:18:09;49603.41;;;-149.77;35.18